sensor_id;sensor_type;location;lat;lon;timestamp;temperature;humidity
26575;DHT22;67165;50.256;10.978;2023-05-20T00:00:08;13.40;98.00
26575;DHT22;67165;50.256;10.978;2023-05-20T00:02:35;13.40;98.00
26575;DHT22;67165;50.256;10.978;2023-05-20T00:05:01;13.30;98.00
26575;DHT22;67165;50.256;10.978;2023-05-20T00:07:27;13.30;98.00
26575;DHT22;67165;50.256;10.978;2023-05-20T00:09:52;13.20;98.00
26575;DHT22;67165;50.256;10.978;2023-05-20T00:12:18;13.20;98.00
26575;DHT22;67165;50.256;10.978;2023-05-20T00:14:44;13.20;98.00
26575;DHT22;67165;50.256;10.978;2023-05-20T00:17:09;13.20;98.00
26575;DHT22;67165;50.256;10.978;2023-05-20T00:19:35;13.30;98.00
26575;DHT22;67165;50.256;10.978;2023-05-20T00:22:01;13.30;98.00
26575;DHT22;67165;50.256;10.978;2023-05-20T00:24:26;13.30;98.00
26575;DHT22;67165;50.256;10.978;2023-05-20T00:26:52;13.40;98.00
26575;DHT22;67165;50.256;10.978;2023-05-20T00:29:20;13.40;98.00
26575;DHT22;67165;50.256;10.978;2023-05-20T00:31:46;13.40;98.00
26575;DHT22;67165;50.256;10.978;2023-05-20T00:34:12;13.40;98.00
26575;DHT22;67165;50.256;10.978;2023-05-20T00:36:37;13.40;98.00
26575;DHT22;67165;50.256;10.978;2023-05-20T00:39:03;13.40;98.00
26575;DHT22;67165;50.256;10.978;2023-05-20T00:41:29;13.50;98.00
26575;DHT22;67165;50.256;10.978;2023-05-20T00:43:55;13.40;98.00
26575;DHT22;67165;50.256;10.978;2023-05-20T00:46:25;13.50;98.00
26575;DHT22;67165;50.256;10.978;2023-05-20T00:48:52;13.50;98.00
26575;DHT22;67165;50.256;10.978;2023-05-20T00:51:19;13.60;98.00
26575;DHT22;67165;50.256;10.978;2023-05-20T00:53:45;13.50;98.00
26575;DHT22;67165;50.256;10.978;2023-05-20T00:56:11;13.50;98.00
26575;DHT22;67165;50.256;10.978;2023-05-20T00:58:37;13.50;98.00
26575;DHT22;67165;50.256;10.978;2023-05-20T01:01:04;13.50;98.00
26575;DHT22;67165;50.256;10.978;2023-05-20T01:03:30;13.50;98.00
26575;DHT22;67165;50.256;10.978;2023-05-20T01:05:56;13.50;98.00
26575;DHT22;67165;50.256;10.978;2023-05-20T01:08:22;13.50;98.00
26575;DHT22;67165;50.256;10.978;2023-05-20T01:11:07;13.50;98.00
26575;DHT22;67165;50.256;10.978;2023-05-20T01:13:44;13.40;98.00
26575;DHT22;67165;50.256;10.978;2023-05-20T01:16:12;13.40;98.00
26575;DHT22;67165;50.256;10.978;2023-05-20T01:18:40;13.50;98.00
26575;DHT22;67165;50.256;10.978;2023-05-20T01:21:10;13.40;98.00
26575;DHT22;67165;50.256;10.978;2023-05-20T01:23:40;13.40;98.00
26575;DHT22;67165;50.256;10.978;2023-05-20T01:26:06;13.40;98.00
26575;DHT22;67165;50.256;10.978;2023-05-20T01:28:36;13.40;98.00
26575;DHT22;67165;50.256;10.978;2023-05-20T01:31:04;13.40;98.00
26575;DHT22;67165;50.256;10.978;2023-05-20T01:33:33;13.40;98.00
26575;DHT22;67165;50.256;10.978;2023-05-20T01:36:00;13.40;98.00
26575;DHT22;67165;50.256;10.978;2023-05-20T01:38:26;13.40;98.00
26575;DHT22;67165;50.256;10.978;2023-05-20T01:40:53;13.40;98.00
26575;DHT22;67165;50.256;10.978;2023-05-20T01:43:20;13.30;98.00
26575;DHT22;67165;50.256;10.978;2023-05-20T01:45:48;13.30;98.00
26575;DHT22;67165;50.256;10.978;2023-05-20T01:48:14;13.30;98.00
26575;DHT22;67165;50.256;10.978;2023-05-20T01:50:41;13.30;98.00
26575;DHT22;67165;50.256;10.978;2023-05-20T01:53:06;13.30;98.00
26575;DHT22;67165;50.256;10.978;2023-05-20T01:55:34;13.30;98.00
26575;DHT22;67165;50.256;10.978;2023-05-20T01:58:00;13.30;98.00
26575;DHT22;67165;50.256;10.978;2023-05-20T02:00:26;13.20;98.00
26575;DHT22;67165;50.256;10.978;2023-05-20T02:02:52;13.20;98.00
26575;DHT22;67165;50.256;10.978;2023-05-20T02:05:17;13.30;98.00
26575;DHT22;67165;50.256;10.978;2023-05-20T02:07:43;13.30;98.00
26575;DHT22;67165;50.256;10.978;2023-05-20T02:10:09;13.20;98.00
26575;DHT22;67165;50.256;10.978;2023-05-20T02:12:35;13.20;98.00
26575;DHT22;67165;50.256;10.978;2023-05-20T02:15:00;13.20;98.00
26575;DHT22;67165;50.256;10.978;2023-05-20T02:17:26;13.20;98.00
26575;DHT22;67165;50.256;10.978;2023-05-20T02:19:52;13.20;98.00
26575;DHT22;67165;50.256;10.978;2023-05-20T02:22:18;13.20;98.00
26575;DHT22;67165;50.256;10.978;2023-05-20T02:24:44;13.20;98.00
26575;DHT22;67165;50.256;10.978;2023-05-20T02:27:10;13.20;98.00
26575;DHT22;67165;50.256;10.978;2023-05-20T02:29:36;13.20;98.00
26575;DHT22;67165;50.256;10.978;2023-05-20T02:32:01;13.20;98.00
26575;DHT22;67165;50.256;10.978;2023-05-20T02:34:29;13.20;98.00
26575;DHT22;67165;50.256;10.978;2023-05-20T02:36:55;13.10;98.00
26575;DHT22;67165;50.256;10.978;2023-05-20T02:39:21;13.10;98.00
26575;DHT22;67165;50.256;10.978;2023-05-20T02:41:47;13.10;98.00
26575;DHT22;67165;50.256;10.978;2023-05-20T02:44:13;13.10;98.00
26575;DHT22;67165;50.256;10.978;2023-05-20T02:46:39;13.10;98.00
26575;DHT22;67165;50.256;10.978;2023-05-20T02:49:04;13.10;98.00
26575;DHT22;67165;50.256;10.978;2023-05-20T02:51:30;13.00;98.00
26575;DHT22;67165;50.256;10.978;2023-05-20T02:53:58;13.00;98.00
26575;DHT22;67165;50.256;10.978;2023-05-20T02:56:24;13.10;98.00
26575;DHT22;67165;50.256;10.978;2023-05-20T02:58:51;13.10;98.00
26575;DHT22;67165;50.256;10.978;2023-05-20T03:01:17;13.10;98.00
26575;DHT22;67165;50.256;10.978;2023-05-20T03:03:42;13.10;98.00
26575;DHT22;67165;50.256;10.978;2023-05-20T03:06:08;13.10;98.00
26575;DHT22;67165;50.256;10.978;2023-05-20T03:08:34;13.00;98.00
26575;DHT22;67165;50.256;10.978;2023-05-20T03:11:00;12.90;98.00
26575;DHT22;67165;50.256;10.978;2023-05-20T03:13:26;12.90;98.00
26575;DHT22;67165;50.256;10.978;2023-05-20T03:15:52;12.90;98.00
26575;DHT22;67165;50.256;10.978;2023-05-20T03:18:18;12.90;98.00
26575;DHT22;67165;50.256;10.978;2023-05-20T03:20:45;12.90;98.00
26575;DHT22;67165;50.256;10.978;2023-05-20T03:23:11;12.90;98.00
26575;DHT22;67165;50.256;10.978;2023-05-20T03:25:37;12.90;98.00
26575;DHT22;67165;50.256;10.978;2023-05-20T03:28:03;12.90;98.00
26575;DHT22;67165;50.256;10.978;2023-05-20T03:30:29;12.90;98.00
26575;DHT22;67165;50.256;10.978;2023-05-20T03:32:55;12.90;98.00
26575;DHT22;67165;50.256;10.978;2023-05-20T03:35:22;12.80;98.00
26575;DHT22;67165;50.256;10.978;2023-05-20T03:37:47;12.80;98.00
26575;DHT22;67165;50.256;10.978;2023-05-20T03:40:13;12.90;98.00
26575;DHT22;67165;50.256;10.978;2023-05-20T03:42:39;12.90;98.00
26575;DHT22;67165;50.256;10.978;2023-05-20T03:45:05;12.80;98.00
26575;DHT22;67165;50.256;10.978;2023-05-20T03:47:34;12.80;98.00
26575;DHT22;67165;50.256;10.978;2023-05-20T03:49:59;12.80;98.00
26575;DHT22;67165;50.256;10.978;2023-05-20T03:52:25;12.90;98.00
26575;DHT22;67165;50.256;10.978;2023-05-20T03:54:52;12.80;98.00
26575;DHT22;67165;50.256;10.978;2023-05-20T03:57:17;12.80;98.00
26575;DHT22;67165;50.256;10.978;2023-05-20T03:59:44;12.80;98.00
26575;DHT22;67165;50.256;10.978;2023-05-20T04:02:09;12.80;98.00
26575;DHT22;67165;50.256;10.978;2023-05-20T04:04:35;12.80;98.00
26575;DHT22;67165;50.256;10.978;2023-05-20T04:07:01;12.80;98.00
26575;DHT22;67165;50.256;10.978;2023-05-20T04:09:29;12.70;98.00
26575;DHT22;67165;50.256;10.978;2023-05-20T04:11:54;12.70;98.00
26575;DHT22;67165;50.256;10.978;2023-05-20T04:14:20;12.70;98.00
26575;DHT22;67165;50.256;10.978;2023-05-20T04:16:46;12.70;98.00
26575;DHT22;67165;50.256;10.978;2023-05-20T04:19:11;12.70;98.00
26575;DHT22;67165;50.256;10.978;2023-05-20T04:21:38;12.70;98.00
26575;DHT22;67165;50.256;10.978;2023-05-20T04:24:03;12.70;98.00
26575;DHT22;67165;50.256;10.978;2023-05-20T04:26:30;12.70;98.00
26575;DHT22;67165;50.256;10.978;2023-05-20T04:28:55;12.70;98.00
26575;DHT22;67165;50.256;10.978;2023-05-20T04:31:23;12.70;98.00
26575;DHT22;67165;50.256;10.978;2023-05-20T04:33:54;12.70;98.00
26575;DHT22;67165;50.256;10.978;2023-05-20T04:36:19;12.70;98.00
26575;DHT22;67165;50.256;10.978;2023-05-20T04:38:45;12.80;98.00
26575;DHT22;67165;50.256;10.978;2023-05-20T04:41:12;12.90;98.00
26575;DHT22;67165;50.256;10.978;2023-05-20T04:43:38;13.00;98.00
26575;DHT22;67165;50.256;10.978;2023-05-20T04:46:04;13.00;98.00
26575;DHT22;67165;50.256;10.978;2023-05-20T04:48:30;13.10;98.00
26575;DHT22;67165;50.256;10.978;2023-05-20T04:50:56;13.10;98.00
26575;DHT22;67165;50.256;10.978;2023-05-20T04:53:22;13.20;98.00
26575;DHT22;67165;50.256;10.978;2023-05-20T04:55:48;13.20;98.00
26575;DHT22;67165;50.256;10.978;2023-05-20T04:58:21;13.20;98.00
26575;DHT22;67165;50.256;10.978;2023-05-20T05:00:49;13.10;98.00
26575;DHT22;67165;50.256;10.978;2023-05-20T05:03:15;13.10;98.00
26575;DHT22;67165;50.256;10.978;2023-05-20T05:05:41;13.20;98.00
26575;DHT22;67165;50.256;10.978;2023-05-20T05:08:08;13.30;98.00
26575;DHT22;67165;50.256;10.978;2023-05-20T05:10:34;13.30;98.00
26575;DHT22;67165;50.256;10.978;2023-05-20T05:13:00;13.40;98.00
26575;DHT22;67165;50.256;10.978;2023-05-20T05:15:27;13.50;98.00
26575;DHT22;67165;50.256;10.978;2023-05-20T05:17:53;13.60;98.00
26575;DHT22;67165;50.256;10.978;2023-05-20T05:20:19;13.80;98.00
26575;DHT22;67165;50.256;10.978;2023-05-20T05:22:45;13.90;98.00
26575;DHT22;67165;50.256;10.978;2023-05-20T05:25:11;14.00;98.00
26575;DHT22;67165;50.256;10.978;2023-05-20T05:27:37;14.10;98.00
26575;DHT22;67165;50.256;10.978;2023-05-20T05:30:04;14.10;98.00
26575;DHT22;67165;50.256;10.978;2023-05-20T05:32:30;14.20;98.00
26575;DHT22;67165;50.256;10.978;2023-05-20T05:34:56;14.30;98.00
26575;DHT22;67165;50.256;10.978;2023-05-20T05:37:22;14.50;98.00
26575;DHT22;67165;50.256;10.978;2023-05-20T05:39:48;14.60;98.00
26575;DHT22;67165;50.256;10.978;2023-05-20T05:42:14;14.80;98.00
26575;DHT22;67165;50.256;10.978;2023-05-20T05:44:40;14.90;98.00
26575;DHT22;67165;50.256;10.978;2023-05-20T05:47:06;15.10;98.00
26575;DHT22;67165;50.256;10.978;2023-05-20T05:49:32;15.20;98.00
26575;DHT22;67165;50.256;10.978;2023-05-20T05:51:58;15.10;98.00
26575;DHT22;67165;50.256;10.978;2023-05-20T05:54:24;15.00;98.00
26575;DHT22;67165;50.256;10.978;2023-05-20T05:56:53;15.10;98.00
26575;DHT22;67165;50.256;10.978;2023-05-20T05:59:19;15.40;98.00
26575;DHT22;67165;50.256;10.978;2023-05-20T06:01:45;15.30;98.00
26575;DHT22;67165;50.256;10.978;2023-05-20T06:04:11;15.30;98.00
26575;DHT22;67165;50.256;10.978;2023-05-20T06:06:36;15.10;98.00
26575;DHT22;67165;50.256;10.978;2023-05-20T06:09:02;15.00;98.00
26575;DHT22;67165;50.256;10.978;2023-05-20T06:11:28;15.20;98.00
26575;DHT22;67165;50.256;10.978;2023-05-20T06:13:54;15.30;98.00
26575;DHT22;67165;50.256;10.978;2023-05-20T06:16:20;15.20;98.00
26575;DHT22;67165;50.256;10.978;2023-05-20T06:18:46;15.00;98.00
26575;DHT22;67165;50.256;10.978;2023-05-20T06:21:12;14.90;98.00
26575;DHT22;67165;50.256;10.978;2023-05-20T06:23:37;14.90;98.00
26575;DHT22;67165;50.256;10.978;2023-05-20T06:26:03;15.00;98.00
26575;DHT22;67165;50.256;10.978;2023-05-20T06:28:29;15.20;98.00
26575;DHT22;67165;50.256;10.978;2023-05-20T06:30:55;15.40;98.00
26575;DHT22;67165;50.256;10.978;2023-05-20T06:33:22;15.50;98.00
26575;DHT22;67165;50.256;10.978;2023-05-20T06:35:53;15.70;98.00
26575;DHT22;67165;50.256;10.978;2023-05-20T06:38:19;16.00;98.00
26575;DHT22;67165;50.256;10.978;2023-05-20T06:40:46;16.00;98.00
26575;DHT22;67165;50.256;10.978;2023-05-20T06:43:13;16.30;98.00
26575;DHT22;67165;50.256;10.978;2023-05-20T06:45:39;16.20;98.00
26575;DHT22;67165;50.256;10.978;2023-05-20T06:48:04;16.10;98.00
26575;DHT22;67165;50.256;10.978;2023-05-20T06:50:30;15.90;98.00
26575;DHT22;67165;50.256;10.978;2023-05-20T06:52:56;15.60;98.00
26575;DHT22;67165;50.256;10.978;2023-05-20T06:55:21;15.40;98.00
26575;DHT22;67165;50.256;10.978;2023-05-20T06:57:47;15.30;98.00
26575;DHT22;67165;50.256;10.978;2023-05-20T07:00:13;15.10;98.00
26575;DHT22;67165;50.256;10.978;2023-05-20T07:02:39;15.00;98.00
26575;DHT22;67165;50.256;10.978;2023-05-20T07:05:05;15.00;98.00
26575;DHT22;67165;50.256;10.978;2023-05-20T07:07:31;14.90;98.00
26575;DHT22;67165;50.256;10.978;2023-05-20T07:09:57;14.80;98.00
26575;DHT22;67165;50.256;10.978;2023-05-20T07:12:23;15.00;98.00
26575;DHT22;67165;50.256;10.978;2023-05-20T07:14:49;15.20;98.00
26575;DHT22;67165;50.256;10.978;2023-05-20T07:17:14;15.40;98.00
26575;DHT22;67165;50.256;10.978;2023-05-20T07:19:41;15.40;98.00
26575;DHT22;67165;50.256;10.978;2023-05-20T07:22:06;15.50;98.00
26575;DHT22;67165;50.256;10.978;2023-05-20T07:24:32;15.70;98.00
26575;DHT22;67165;50.256;10.978;2023-05-20T07:26:58;15.70;98.00
26575;DHT22;67165;50.256;10.978;2023-05-20T07:29:23;15.70;98.00
26575;DHT22;67165;50.256;10.978;2023-05-20T07:31:49;15.50;98.00
26575;DHT22;67165;50.256;10.978;2023-05-20T07:34:15;15.70;98.00
26575;DHT22;67165;50.256;10.978;2023-05-20T07:36:40;15.90;98.00
26575;DHT22;67165;50.256;10.978;2023-05-20T07:39:06;16.10;98.00
26575;DHT22;67165;50.256;10.978;2023-05-20T07:41:35;16.30;98.00
26575;DHT22;67165;50.256;10.978;2023-05-20T07:44:03;16.10;98.00
26575;DHT22;67165;50.256;10.978;2023-05-20T07:46:29;16.50;98.00
26575;DHT22;67165;50.256;10.978;2023-05-20T07:48:55;16.90;98.00
26575;DHT22;67165;50.256;10.978;2023-05-20T07:51:20;17.30;98.00
26575;DHT22;67165;50.256;10.978;2023-05-20T07:53:46;17.50;98.00
26575;DHT22;67165;50.256;10.978;2023-05-20T07:56:12;17.80;98.00
26575;DHT22;67165;50.256;10.978;2023-05-20T07:58:40;17.70;98.00
26575;DHT22;67165;50.256;10.978;2023-05-20T08:01:06;17.40;98.00
26575;DHT22;67165;50.256;10.978;2023-05-20T08:03:34;17.20;98.00
26575;DHT22;67165;50.256;10.978;2023-05-20T08:06:01;16.80;98.00
26575;DHT22;67165;50.256;10.978;2023-05-20T08:08:26;16.90;98.00
26575;DHT22;67165;50.256;10.978;2023-05-20T08:10:54;16.80;98.00
26575;DHT22;67165;50.256;10.978;2023-05-20T08:13:20;16.80;98.00
26575;DHT22;67165;50.256;10.978;2023-05-20T08:15:46;16.80;98.00
26575;DHT22;67165;50.256;10.978;2023-05-20T08:18:14;16.80;98.00
26575;DHT22;67165;50.256;10.978;2023-05-20T08:20:39;16.90;98.00
26575;DHT22;67165;50.256;10.978;2023-05-20T08:23:06;17.10;98.00
26575;DHT22;67165;50.256;10.978;2023-05-20T08:25:32;17.20;98.00
26575;DHT22;67165;50.256;10.978;2023-05-20T08:28:00;17.40;98.00
26575;DHT22;67165;50.256;10.978;2023-05-20T08:30:28;17.40;98.00
26575;DHT22;67165;50.256;10.978;2023-05-20T08:32:54;17.30;98.00
26575;DHT22;67165;50.256;10.978;2023-05-20T08:35:21;17.40;98.00
26575;DHT22;67165;50.256;10.978;2023-05-20T08:37:46;17.50;98.00
26575;DHT22;67165;50.256;10.978;2023-05-20T08:40:12;17.80;98.00
26575;DHT22;67165;50.256;10.978;2023-05-20T08:42:42;18.30;98.00
26575;DHT22;67165;50.256;10.978;2023-05-20T08:45:12;18.30;98.00
26575;DHT22;67165;50.256;10.978;2023-05-20T08:47:42;18.20;98.00
26575;DHT22;67165;50.256;10.978;2023-05-20T08:50:11;18.30;98.00
26575;DHT22;67165;50.256;10.978;2023-05-20T08:52:47;18.50;98.00
26575;DHT22;67165;50.256;10.978;2023-05-20T08:55:42;18.70;98.00
26575;DHT22;67165;50.256;10.978;2023-05-20T08:58:11;19.00;98.00
26575;DHT22;67165;50.256;10.978;2023-05-20T09:00:37;19.20;98.00
26575;DHT22;67165;50.256;10.978;2023-05-20T09:03:03;19.30;98.00
26575;DHT22;67165;50.256;10.978;2023-05-20T09:05:28;19.50;98.00
26575;DHT22;67165;50.256;10.978;2023-05-20T09:08:04;19.80;98.00
26575;DHT22;67165;50.256;10.978;2023-05-20T09:10:31;19.60;98.00
26575;DHT22;67165;50.256;10.978;2023-05-20T09:13:03;19.50;98.00
26575;DHT22;67165;50.256;10.978;2023-05-20T09:15:30;19.40;98.00
26575;DHT22;67165;50.256;10.978;2023-05-20T09:17:59;19.50;98.00
26575;DHT22;67165;50.256;10.978;2023-05-20T09:20:25;19.70;98.00
26575;DHT22;67165;50.256;10.978;2023-05-20T09:22:51;19.90;98.00
26575;DHT22;67165;50.256;10.978;2023-05-20T09:25:20;19.80;98.00
26575;DHT22;67165;50.256;10.978;2023-05-20T09:27:48;19.60;98.00
26575;DHT22;67165;50.256;10.978;2023-05-20T09:30:14;19.60;98.00
26575;DHT22;67165;50.256;10.978;2023-05-20T09:32:42;19.40;98.00
26575;DHT22;67165;50.256;10.978;2023-05-20T09:35:12;19.00;98.00
26575;DHT22;67165;50.256;10.978;2023-05-20T09:37:41;19.10;98.00
26575;DHT22;67165;50.256;10.978;2023-05-20T09:40:07;19.20;98.00
26575;DHT22;67165;50.256;10.978;2023-05-20T09:45:08;19.60;98.00
26575;DHT22;67165;50.256;10.978;2023-05-20T09:47:36;19.50;98.00
26575;DHT22;67165;50.256;10.978;2023-05-20T09:50:05;19.50;98.00
26575;DHT22;67165;50.256;10.978;2023-05-20T09:52:33;19.50;98.00
26575;DHT22;67165;50.256;10.978;2023-05-20T09:55:01;19.10;98.00
26575;DHT22;67165;50.256;10.978;2023-05-20T09:57:34;18.90;98.00
26575;DHT22;67165;50.256;10.978;2023-05-20T10:00:00;18.80;98.00
26575;DHT22;67165;50.256;10.978;2023-05-20T10:02:27;18.70;98.00
26575;DHT22;67165;50.256;10.978;2023-05-20T10:04:54;18.60;98.00
26575;DHT22;67165;50.256;10.978;2023-05-20T10:07:28;18.60;98.00
26575;DHT22;67165;50.256;10.978;2023-05-20T10:15:31;19.00;98.00
26575;DHT22;67165;50.256;10.978;2023-05-20T10:21:16;18.90;98.00
26575;DHT22;67165;50.256;10.978;2023-05-20T10:23:42;19.30;98.00
26575;DHT22;67165;50.256;10.978;2023-05-20T10:26:08;19.60;98.00
26575;DHT22;67165;50.256;10.978;2023-05-20T10:28:36;19.50;98.00
26575;DHT22;67165;50.256;10.978;2023-05-20T10:31:13;19.50;98.00
26575;DHT22;67165;50.256;10.978;2023-05-20T10:33:43;19.60;98.00
26575;DHT22;67165;50.256;10.978;2023-05-20T10:36:09;19.40;98.00
26575;DHT22;67165;50.256;10.978;2023-05-20T10:38:34;19.30;98.00
26575;DHT22;67165;50.256;10.978;2023-05-20T10:41:09;19.50;98.00
26575;DHT22;67165;50.256;10.978;2023-05-20T10:43:38;19.60;98.00
26575;DHT22;67165;50.256;10.978;2023-05-20T10:46:04;19.60;98.00
26575;DHT22;67165;50.256;10.978;2023-05-20T10:48:31;19.80;98.00
26575;DHT22;67165;50.256;10.978;2023-05-20T10:50:58;19.80;98.00
26575;DHT22;67165;50.256;10.978;2023-05-20T10:53:27;19.80;98.00
26575;DHT22;67165;50.256;10.978;2023-05-20T10:55:53;20.00;98.00
26575;DHT22;67165;50.256;10.978;2023-05-20T10:58:23;20.10;98.00
26575;DHT22;67165;50.256;10.978;2023-05-20T11:00:52;20.10;98.00
26575;DHT22;67165;50.256;10.978;2023-05-20T11:03:17;20.10;98.00
26575;DHT22;67165;50.256;10.978;2023-05-20T11:05:46;20.20;98.00
26575;DHT22;67165;50.256;10.978;2023-05-20T11:08:13;20.10;98.00
26575;DHT22;67165;50.256;10.978;2023-05-20T11:10:40;20.30;98.00
26575;DHT22;67165;50.256;10.978;2023-05-20T11:13:06;20.30;98.00
26575;DHT22;67165;50.256;10.978;2023-05-20T11:15:34;20.10;98.00
26575;DHT22;67165;50.256;10.978;2023-05-20T11:18:02;20.20;98.00
26575;DHT22;67165;50.256;10.978;2023-05-20T11:20:29;20.40;98.00
26575;DHT22;67165;50.256;10.978;2023-05-20T11:22:55;20.50;98.00
26575;DHT22;67165;50.256;10.978;2023-05-20T11:25:22;20.70;98.00
26575;DHT22;67165;50.256;10.978;2023-05-20T11:27:48;20.80;98.00
26575;DHT22;67165;50.256;10.978;2023-05-20T11:30:15;20.80;98.00
26575;DHT22;67165;50.256;10.978;2023-05-20T11:32:55;20.90;98.00
26575;DHT22;67165;50.256;10.978;2023-05-20T11:35:22;20.80;98.00
26575;DHT22;67165;50.256;10.978;2023-05-20T11:38:02;20.60;98.00
26575;DHT22;67165;50.256;10.978;2023-05-20T11:40:30;20.70;98.00
26575;DHT22;67165;50.256;10.978;2023-05-20T11:42:57;20.80;98.00
26575;DHT22;67165;50.256;10.978;2023-05-20T11:45:23;20.70;98.00
26575;DHT22;67165;50.256;10.978;2023-05-20T11:48:02;20.60;98.00
26575;DHT22;67165;50.256;10.978;2023-05-20T11:50:39;20.80;98.00
26575;DHT22;67165;50.256;10.978;2023-05-20T11:53:07;20.90;98.00
26575;DHT22;67165;50.256;10.978;2023-05-20T11:55:33;21.10;98.00
26575;DHT22;67165;50.256;10.978;2023-05-20T11:58:00;21.20;98.00
26575;DHT22;67165;50.256;10.978;2023-05-20T12:00:26;21.40;98.00
26575;DHT22;67165;50.256;10.978;2023-05-20T12:02:52;21.60;98.00
26575;DHT22;67165;50.256;10.978;2023-05-20T12:05:18;21.60;98.00
26575;DHT22;67165;50.256;10.978;2023-05-20T12:07:44;21.60;98.00
26575;DHT22;67165;50.256;10.978;2023-05-20T12:10:10;21.80;98.00
26575;DHT22;67165;50.256;10.978;2023-05-20T12:12:38;21.90;98.00
26575;DHT22;67165;50.256;10.978;2023-05-20T12:15:04;22.00;98.00
26575;DHT22;67165;50.256;10.978;2023-05-20T12:17:34;21.80;98.00
26575;DHT22;67165;50.256;10.978;2023-05-20T12:20:08;21.60;98.00
26575;DHT22;67165;50.256;10.978;2023-05-20T12:22:34;21.60;98.00
26575;DHT22;67165;50.256;10.978;2023-05-20T12:25:00;21.70;98.00
26575;DHT22;67165;50.256;10.978;2023-05-20T12:27:28;21.80;98.00
26575;DHT22;67165;50.256;10.978;2023-05-20T12:29:55;21.60;98.00
26575;DHT22;67165;50.256;10.978;2023-05-20T12:32:20;21.60;98.00
26575;DHT22;67165;50.256;10.978;2023-05-20T12:34:47;21.60;98.00
26575;DHT22;67165;50.256;10.978;2023-05-20T12:37:13;21.40;98.00
26575;DHT22;67165;50.256;10.978;2023-05-20T12:39:39;21.40;98.00
26575;DHT22;67165;50.256;10.978;2023-05-20T12:42:04;21.60;98.00
26575;DHT22;67165;50.256;10.978;2023-05-20T12:44:30;21.50;98.00
26575;DHT22;67165;50.256;10.978;2023-05-20T12:46:56;21.30;98.00
26575;DHT22;67165;50.256;10.978;2023-05-20T12:49:21;21.20;98.00
26575;DHT22;67165;50.256;10.978;2023-05-20T12:51:47;21.20;98.00
26575;DHT22;67165;50.256;10.978;2023-05-20T12:54:12;21.50;98.00
26575;DHT22;67165;50.256;10.978;2023-05-20T12:56:38;21.80;98.00
26575;DHT22;67165;50.256;10.978;2023-05-20T12:59:05;22.10;98.00
26575;DHT22;67165;50.256;10.978;2023-05-20T13:01:30;22.20;98.00
26575;DHT22;67165;50.256;10.978;2023-05-20T13:03:56;22.10;98.00
26575;DHT22;67165;50.256;10.978;2023-05-20T13:06:22;22.00;98.00
26575;DHT22;67165;50.256;10.978;2023-05-20T13:08:48;22.10;98.00
26575;DHT22;67165;50.256;10.978;2023-05-20T13:11:13;21.90;98.00
26575;DHT22;67165;50.256;10.978;2023-05-20T13:13:39;21.80;98.00
26575;DHT22;67165;50.256;10.978;2023-05-20T13:16:05;21.60;98.00
26575;DHT22;67165;50.256;10.978;2023-05-20T13:18:31;21.40;98.00
26575;DHT22;67165;50.256;10.978;2023-05-20T13:20:57;21.50;98.00
26575;DHT22;67165;50.256;10.978;2023-05-20T13:23:22;21.70;98.00
26575;DHT22;67165;50.256;10.978;2023-05-20T13:25:48;21.70;98.00
26575;DHT22;67165;50.256;10.978;2023-05-20T13:28:13;21.60;98.00
26575;DHT22;67165;50.256;10.978;2023-05-20T13:30:43;21.60;98.00
26575;DHT22;67165;50.256;10.978;2023-05-20T13:33:08;21.60;98.00
26575;DHT22;67165;50.256;10.978;2023-05-20T13:35:34;21.60;98.00
26575;DHT22;67165;50.256;10.978;2023-05-20T13:37:59;21.60;98.00
26575;DHT22;67165;50.256;10.978;2023-05-20T13:40:25;21.60;98.00
26575;DHT22;67165;50.256;10.978;2023-05-20T13:42:51;21.80;98.00
26575;DHT22;67165;50.256;10.978;2023-05-20T13:45:16;22.10;98.00
26575;DHT22;67165;50.256;10.978;2023-05-20T13:47:43;22.20;98.00
26575;DHT22;67165;50.256;10.978;2023-05-20T13:50:09;22.30;98.00
26575;DHT22;67165;50.256;10.978;2023-05-20T13:52:35;22.10;98.00
26575;DHT22;67165;50.256;10.978;2023-05-20T13:55:01;22.00;98.00
26575;DHT22;67165;50.256;10.978;2023-05-20T13:57:26;22.00;98.00
26575;DHT22;67165;50.256;10.978;2023-05-20T13:59:52;21.90;98.00
26575;DHT22;67165;50.256;10.978;2023-05-20T14:02:18;22.00;98.00
26575;DHT22;67165;50.256;10.978;2023-05-20T14:04:43;22.00;98.00
26575;DHT22;67165;50.256;10.978;2023-05-20T14:07:11;22.00;98.00
26575;DHT22;67165;50.256;10.978;2023-05-20T14:09:37;21.90;98.00
26575;DHT22;67165;50.256;10.978;2023-05-20T14:12:04;21.90;98.00
26575;DHT22;67165;50.256;10.978;2023-05-20T14:14:30;21.90;98.00
26575;DHT22;67165;50.256;10.978;2023-05-20T14:16:55;21.90;98.00
26575;DHT22;67165;50.256;10.978;2023-05-20T14:19:21;21.90;98.00
26575;DHT22;67165;50.256;10.978;2023-05-20T14:21:46;22.00;98.00
26575;DHT22;67165;50.256;10.978;2023-05-20T14:24:12;21.90;98.00
26575;DHT22;67165;50.256;10.978;2023-05-20T14:26:38;21.90;98.00
26575;DHT22;67165;50.256;10.978;2023-05-20T14:29:03;22.00;98.00
26575;DHT22;67165;50.256;10.978;2023-05-20T14:31:29;22.10;98.00
26575;DHT22;67165;50.256;10.978;2023-05-20T14:33:55;22.00;98.00
26575;DHT22;67165;50.256;10.978;2023-05-20T14:36:20;21.70;98.00
26575;DHT22;67165;50.256;10.978;2023-05-20T14:38:46;21.70;98.00
26575;DHT22;67165;50.256;10.978;2023-05-20T14:41:12;21.70;98.00
26575;DHT22;67165;50.256;10.978;2023-05-20T14:43:37;21.70;98.00
26575;DHT22;67165;50.256;10.978;2023-05-20T14:46:03;21.70;98.00
26575;DHT22;67165;50.256;10.978;2023-05-20T14:48:29;21.70;98.00
26575;DHT22;67165;50.256;10.978;2023-05-20T14:50:54;21.70;98.00
26575;DHT22;67165;50.256;10.978;2023-05-20T14:53:21;21.80;98.00
26575;DHT22;67165;50.256;10.978;2023-05-20T14:55:47;21.90;98.00
26575;DHT22;67165;50.256;10.978;2023-05-20T14:58:13;22.10;98.00
26575;DHT22;67165;50.256;10.978;2023-05-20T15:00:38;21.80;98.00
26575;DHT22;67165;50.256;10.978;2023-05-20T15:03:04;21.70;98.00
26575;DHT22;67165;50.256;10.978;2023-05-20T15:05:30;21.60;98.00
26575;DHT22;67165;50.256;10.978;2023-05-20T15:07:55;21.50;98.00
26575;DHT22;67165;50.256;10.978;2023-05-20T15:10:21;21.50;98.00
26575;DHT22;67165;50.256;10.978;2023-05-20T15:12:47;21.40;98.00
26575;DHT22;67165;50.256;10.978;2023-05-20T15:15:13;21.30;98.00
26575;DHT22;67165;50.256;10.978;2023-05-20T15:17:38;21.30;98.00
26575;DHT22;67165;50.256;10.978;2023-05-20T15:20:05;21.50;98.00
26575;DHT22;67165;50.256;10.978;2023-05-20T15:22:30;21.50;98.00